Time;durP1;ratioP1;P1;durP2;ratioP2;P2;SDS_P1;SDS_P2;PMS_P1;PMS_P2;Temp;Humidity;BMP_temperature;BMP_pressure;BME280_temperature;BME280_humidity;BME280_pressure;Samples;Min_cycle;Max_cycle;Signal;HPM_P1;HPM_P2
2023/09/25 00:02:10;;;;;;;4.07;2.45;;;23.90;68.70;;;;;;7679692;22;81140;-54
2023/09/25 00:05:11;;;;;;;4.55;2.47;;;23.90;68.60;;;;;;7651664;22;80555;-52
2023/09/25 00:08:11;;;;;;;4.82;2.17;;;23.90;68.50;;;;;;7678925;22;80717;-53
2023/09/25 00:11:12;;;;;;;2.85;2.20;;;23.90;68.70;;;;;;7679340;22;81040;-56
2023/09/25 00:14:13;;;;;;;4.30;2.35;;;23.90;68.60;;;;;;7679607;22;80761;-62
2023/09/25 00:17:14;;;;;;;3.53;2.53;;;23.90;68.70;;;;;;7679282;22;81235;-63
2023/09/25 00:20:15;;;;;;;2.90;2.33;;;23.90;69.00;;;;;;7679446;22;80238;-63
2023/09/25 00:23:15;;;;;;;2.90;2.35;;;23.90;68.50;;;;;;7678407;22;80757;-61
2023/09/25 00:26:16;;;;;;;2.17;1.95;;;23.90;68.50;;;;;;7680159;22;80524;-62
2023/09/25 00:29:22;;;;;;;3.10;2.40;;;23.90;68.80;;;;;;7652536;22;82945;-65
2023/09/25 00:32:22;;;;;;;2.85;2.30;;;23.90;68.90;;;;;;7653343;22;81463;-65
2023/09/25 00:35:23;;;;;;;3.22;2.05;;;23.90;68.70;;;;;;7679882;22;80725;-64
2023/09/25 00:38:24;;;;;;;3.13;2.38;;;23.90;68.80;;;;;;7680675;22;81034;-64
2023/09/25 00:41:24;;;;;;;3.05;1.95;;;23.90;68.80;;;;;;7680240;22;80524;-64
2023/09/25 00:44:25;;;;;;;3.80;2.35;;;23.90;68.80;;;;;;7652756;22;80437;-66
2023/09/25 00:47:25;;;;;;;7.15;2.30;;;23.90;68.80;;;;;;7680370;22;80596;-66
2023/09/25 00:50:29;;;;;;;3.42;2.38;;;23.90;68.80;;;;;;7652480;22;82295;-52
2023/09/25 00:53:30;;;;;;;5.20;2.20;;;23.90;68.80;;;;;;7679862;22;80135;-54
2023/09/25 00:56:31;;;;;;;6.60;2.38;;;23.80;68.70;;;;;;7678755;22;80233;-55
2023/09/25 00:59:31;;;;;;;4.28;1.88;;;23.90;68.50;;;;;;7679844;22;80223;-55
2023/09/25 01:02:32;;;;;;;3.55;2.47;;;23.90;68.60;;;;;;7652998;22;83880;-54
2023/09/25 01:05:33;;;;;;;2.72;2.13;;;23.90;68.70;;;;;;7680236;22;80244;-55
2023/09/25 01:08:34;;;;;;;2.78;2.25;;;23.80;68.60;;;;;;7679362;22;86374;-59
2023/09/25 01:11:35;;;;;;;3.25;2.22;;;23.90;68.50;;;;;;7628493;22;81862;-59
2023/09/25 01:14:36;;;;;;;2.50;2.10;;;23.90;68.60;;;;;;7678897;22;80416;-60
2023/09/25 01:17:37;;;;;;;3.83;2.15;;;23.90;68.60;;;;;;7680599;22;80508;-63
2023/09/25 01:20:38;;;;;;;2.53;2.28;;;23.90;68.60;;;;;;7661456;22;83708;-63
2023/09/25 01:23:39;;;;;;;5.40;2.38;;;23.90;68.60;;;;;;7676882;22;81777;-53
2023/09/25 01:26:39;;;;;;;4.03;2.08;;;23.90;68.70;;;;;;7648074;22;82809;-69
2023/09/25 01:29:40;;;;;;;3.53;2.20;;;23.90;68.60;;;;;;7677711;22;80672;-68
2023/09/25 01:32:40;;;;;;;4.15;2.10;;;23.90;68.70;;;;;;7677903;22;80228;-66
2023/09/25 01:35:41;;;;;;;6.63;2.63;;;23.90;68.90;;;;;;7674823;22;81233;-67
2023/09/25 01:38:42;;;;;;;2.88;2.20;;;23.90;68.80;;;;;;7675273;22;81518;-67
2023/09/25 01:41:42;;;;;;;2.58;2.25;;;23.90;68.80;;;;;;7677667;22;80653;-69
2023/09/25 01:44:43;;;;;;;4.32;2.03;;;23.90;68.90;;;;;;7677587;22;82551;-63
2023/09/25 01:47:49;;;;;;;2.20;2.00;;;23.80;68.70;;;;;;7680474;22;80271;-62
2023/09/25 01:50:49;;;;;;;2.97;2.03;;;23.90;68.80;;;;;;7676264;22;84049;-64
2023/09/25 01:53:50;;;;;;;4.60;2.58;;;23.90;69.50;;;;;;7679434;22;80256;-64
2023/09/25 01:56:51;;;;;;;2.70;2.13;;;23.90;68.80;;;;;;7673428;22;82022;-64
2023/09/25 01:59:52;;;;;;;3.35;2.28;;;23.90;68.60;;;;;;7677788;22;83245;-52
2023/09/25 02:02:52;;;;;;;2.72;1.88;;;23.90;68.70;;;;;;7677805;22;81407;-54
2023/09/25 02:05:53;;;;;;;4.82;2.40;;;23.90;69.50;;;;;;7678434;22;81777;-53
2023/09/25 02:08:53;;;;;;;2.15;1.98;;;23.80;68.80;;;;;;7676479;22;83943;-54
2023/09/25 02:11:54;;;;;;;3.20;2.35;;;23.90;68.60;;;;;;7679646;22;80879;-54
2023/09/25 02:14:54;;;;;;;3.63;2.55;;;23.90;68.50;;;;;;7676571;22;82358;-55
2023/09/25 02:17:55;;;;;;;2.70;2.40;;;23.80;68.70;;;;;;7677890;22;82596;-63
2023/09/25 02:20:57;;;;;;;3.78;2.15;;;23.80;68.80;;;;;;7677759;22;83368;-62
2023/09/25 02:23:57;;;;;;;3.30;2.50;;;23.80;68.70;;;;;;7677113;22;81875;-63
2023/09/25 02:26:58;;;;;;;3.83;2.28;;;23.80;69.00;;;;;;7679877;22;80761;-63
2023/09/25 02:29:58;;;;;;;4.28;2.45;;;23.80;69.10;;;;;;7676524;22;81967;-63
2023/09/25 02:32:59;;;;;;;5.10;2.35;;;23.80;69.00;;;;;;7679093;22;80496;-63
2023/09/25 02:36:00;;;;;;;6.25;2.50;;;23.80;68.80;;;;;;7679005;22;80865;-54
2023/09/25 02:39:00;;;;;;;8.60;2.60;;;23.80;68.70;;;;;;7679910;22;81294;-53
2023/09/25 02:42:01;;;;;;;3.67;2.33;;;23.80;68.50;;;;;;7678614;22;83168;-55
2023/09/25 02:45:01;;;;;;;2.85;2.30;;;23.80;68.70;;;;;;7679201;22;80524;-53
2023/09/25 02:48:02;;;;;;;2.30;2.10;;;23.80;68.70;;;;;;7679405;22;80532;-53
2023/09/25 02:51:02;;;;;;;2.92;2.40;;;23.80;68.70;;;;;;7677297;22;80504;-53
2023/09/25 02:54:03;;;;;;;2.88;2.42;;;23.80;69.10;;;;;;7678038;22;80865;-52
2023/09/25 02:57:03;;;;;;;3.65;2.50;;;23.80;68.60;;;;;;7679578;22;80387;-53
2023/09/25 03:00:11;;;;;;;4.65;2.60;;;23.80;68.60;;;;;;7678089;22;80687;-54
2023/09/25 03:03:11;;;;;;;4.65;2.63;;;23.80;68.60;;;;;;7676808;22;82106;-50
2023/09/25 03:06:12;;;;;;;3.20;2.28;;;23.80;68.60;;;;;;7677644;22;80826;-52
2023/09/25 03:09:12;;;;;;;3.17;2.80;;;23.80;68.80;;;;;;7675926;22;80995;-53
2023/09/25 03:12:13;;;;;;;7.63;2.67;;;23.80;68.60;;;;;;7679760;22;80844;-53
2023/09/25 03:15:13;;;;;;;2.70;2.10;;;23.80;68.60;;;;;;7676433;22;86555;-52
2023/09/25 03:18:14;;;;;;;5.38;2.70;;;23.80;68.60;;;;;;7676987;22;80180;-54
2023/09/25 03:21:14;;;;;;;3.63;2.22;;;23.80;68.40;;;;;;7673801;22;83376;-53
2023/09/25 03:24:15;;;;;;;2.63;2.30;;;23.80;68.90;;;;;;7677261;22;81483;-55
2023/09/25 03:27:16;;;;;;;5.07;2.50;;;23.80;68.80;;;;;;7675711;22;79970;-52
2023/09/25 03:30:17;;;;;;;4.20;2.97;;;23.80;68.70;;;;;;7675010;22;82746;-55
2023/09/25 03:33:18;;;;;;;4.78;2.33;;;23.80;68.90;;;;;;7677611;22;81931;-52
2023/09/25 03:36:19;;;;;;;3.15;2.22;;;23.80;68.60;;;;;;7677481;22;80583;-60
2023/09/25 03:39:19;;;;;;;4.43;2.65;;;23.80;68.90;;;;;;7679058;22;80647;-60
2023/09/25 03:42:20;;;;;;;3.63;2.95;;;23.90;68.90;;;;;;7670986;22;80331;-62
2023/09/25 03:45:20;;;;;;;3.95;2.40;;;23.80;68.50;;;;;;7677728;22;81239;-63
2023/09/25 03:48:21;;;;;;;4.78;2.35;;;23.90;69.10;;;;;;7679258;22;80970;-60
2023/09/25 03:51:21;;;;;;;3.00;2.58;;;23.80;68.70;;;;;;7676617;22;82953;-63
2023/09/25 03:54:22;;;;;;;10.50;2.80;;;23.80;68.50;;;;;;7675663;22;84238;-62
2023/09/25 03:57:23;;;;;;;3.13;2.60;;;23.80;68.70;;;;;;7674178;22;81979;-61
2023/09/25 04:00:24;;;;;;;3.08;2.45;;;23.80;69.80;;;;;;7678775;22;80637;-62
2023/09/25 04:03:25;;;;;;;4.55;3.03;;;23.80;70.00;;;;;;7677731;22;79983;-61
2023/09/25 04:06:25;;;;;;;5.22;2.90;;;23.80;70.10;;;;;;7679746;22;80505;-63
2023/09/25 04:09:26;;;;;;;6.18;2.75;;;23.80;70.20;;;;;;7679138;22;80117;-61
2023/09/25 04:12:26;;;;;;;4.72;2.40;;;23.90;70.30;;;;;;7679895;22;80222;-68
2023/09/25 04:15:27;;;;;;;3.42;2.45;;;23.80;70.50;;;;;;7679349;22;80656;-69
2023/09/25 04:18:27;;;;;;;7.60;2.70;;;23.90;70.80;;;;;;7679960;22;81285;-59
2023/09/25 04:21:28;;;;;;;5.43;2.53;;;23.90;70.70;;;;;;7678239;22;81290;-59
2023/09/25 04:24:28;;;;;;;3.90;2.25;;;23.90;70.70;;;;;;7677245;22;80807;-62
2023/09/25 04:27:29;;;;;;;5.07;2.63;;;23.90;70.60;;;;;;7679378;22;80591;-63
2023/09/25 04:30:29;;;;;;;4.97;2.08;;;23.90;70.60;;;;;;7678560;22;80374;-65
2023/09/25 04:33:32;;;;;;;3.90;2.30;;;23.90;70.60;;;;;;7679409;22;80284;-61
2023/09/25 04:36:33;;;;;;;7.88;2.85;;;23.90;70.70;;;;;;7678553;22;80641;-64
2023/09/25 04:39:33;;;;;;;8.45;2.30;;;24.00;70.60;;;;;;7679671;22;81377;-62
2023/09/25 04:42:34;;;;;;;10.95;2.33;;;24.00;71.30;;;;;;7680461;22;80289;-63
2023/09/25 04:45:35;;;;;;;12.98;2.78;;;24.00;71.70;;;;;;7680045;22;80808;-63
2023/09/25 04:48:36;;;;;;;7.68;2.83;;;24.00;71.50;;;;;;7680654;22;80415;-55
2023/09/25 04:51:36;;;;;;;4.03;2.70;;;24.10;71.50;;;;;;7679264;22;80721;-59
2023/09/25 04:54:37;;;;;;;4.05;2.10;;;24.00;72.00;;;;;;7651746;22;82133;-57
2023/09/25 04:57:38;;;;;;;7.75;3.05;;;24.00;72.20;;;;;;7680276;22;80695;-57
2023/09/25 05:00:41;;;;;;;12.10;2.10;;;24.10;72.60;;;;;;7651793;22;83895;-57
2023/09/25 05:03:41;;;;;;;4.80;3.10;;;24.10;72.80;;;;;;7676583;22;81030;-56
2023/09/25 05:06:42;;;;;;;6.80;3.25;;;24.10;72.00;;;;;;7674885;22;80749;-49
2023/09/25 05:09:43;;;;;;;6.65;3.25;;;24.00;71.30;;;;;;7660701;22;81693;-48
2023/09/25 05:12:43;;;;;;;8.00;3.88;;;23.90;70.60;;;;;;7667428;22;83004;-50
2023/09/25 05:15:44;;;;;;;5.38;3.70;;;23.80;70.50;;;;;;7673198;22;80544;-51
2023/09/25 05:18:44;;;;;;;5.93;3.65;;;23.80;70.20;;;;;;7673581;22;81314;-51
2023/09/25 05:21:45;;;;;;;6.70;3.80;;;23.70;70.30;;;;;;7675720;22;80488;-52
2023/09/25 05:24:45;;;;;;;7.70;4.43;;;23.70;70.50;;;;;;7649624;22;82240;-53
2023/09/25 05:27:46;;;;;;;8.18;5.70;;;23.60;70.40;;;;;;7621476;22;81605;-51
2023/09/25 05:30:48;;;;;;;10.10;5.40;;;23.60;70.30;;;;;;7676218;22;80773;-54
2023/09/25 05:33:51;;;;;;;14.05;5.22;;;23.60;70.50;;;;;;7677097;22;80447;-52
2023/09/25 05:36:51;;;;;;;7.50;5.68;;;23.50;70.10;;;;;;7676048;22;80574;-51
2023/09/25 05:39:52;;;;;;;15.13;6.20;;;23.50;70.00;;;;;;7676760;22;80967;-54
2023/09/25 05:42:52;;;;;;;12.50;6.25;;;23.50;70.60;;;;;;7546429;22;81384;-47
2023/09/25 05:45:53;;;;;;;13.57;7.15;;;23.40;70.10;;;;;;7528559;22;82240;-57
2023/09/25 05:48:53;;;;;;;11.20;7.40;;;23.40;70.10;;;;;;7497759;22;82567;-57
2023/09/25 05:51:54;;;;;;;13.20;7.47;;;23.30;70.10;;;;;;7503109;22;82112;-59
2023/09/25 05:54:54;;;;;;;12.27;7.60;;;23.20;70.30;;;;;;7530290;22;81885;-58
2023/09/25 05:57:55;;;;;;;11.77;7.47;;;23.20;70.50;;;;;;7530361;22;82102;-57
2023/09/25 06:00:56;;;;;;;10.93;8.27;;;23.10;70.80;;;;;;7524042;22;80455;-58
2023/09/25 06:03:57;;;;;;;12.55;8.05;;;23.10;70.90;;;;;;7521574;22;82118;-54
2023/09/25 06:06:57;;;;;;;11.10;7.05;;;23.10;71.10;;;;;;7525412;22;81695;-53
2023/09/25 06:09:58;;;;;;;11.77;7.05;;;23.10;70.90;;;;;;7524786;22;81852;-51
2023/09/25 06:12:59;;;;;;;10.50;7.60;;;23.20;70.90;;;;;;7523564;22;82122;-53
2023/09/25 06:16:00;;;;;;;10.20;7.43;;;23.10;70.80;;;;;;7526486;22;80397;-53
2023/09/25 06:19:01;;;;;;;12.80;7.68;;;23.20;71.00;;;;;;7525644;22;81363;-53
2023/09/25 06:22:01;;;;;;;12.48;7.93;;;23.20;71.30;;;;;;7532139;22;82190;-59
2023/09/25 06:25:03;;;;;;;13.30;9.35;;;23.10;71.20;;;;;;7528944;22;82175;-59
2023/09/25 06:28:03;;;;;;;13.82;8.93;;;23.10;71.30;;;;;;7525759;22;81700;-58
2023/09/25 06:31:04;;;;;;;16.00;9.98;;;23.10;71.50;;;;;;7525807;22;81734;-58
2023/09/25 06:34:05;;;;;;;13.57;9.23;;;23.00;71.70;;;;;;7526032;22;84744;-58
2023/09/25 06:37:05;;;;;;;11.65;7.95;;;22.90;72.20;;;;;;7498671;22;85168;-54
2023/09/25 06:40:15;;;;;;;13.88;8.55;;;23.00;73.50;;;;;;7499447;22;80298;-59
2023/09/25 06:43:16;;;;;;;15.20;10.38;;;22.90;73.80;;;;;;7525697;22;81744;-60
2023/09/25 06:46:17;;;;;;;17.65;9.38;;;22.80;74.20;;;;;;7521711;22;83527;-59
2023/09/25 06:49:18;;;;;;;15.40;8.80;;;22.80;74.30;;;;;;7527646;22;81945;-58
2023/09/25 06:52:19;;;;;;;14.73;8.73;;;22.80;74.60;;;;;;7532283;22;82175;-58
2023/09/25 06:55:19;;;;;;;10.80;8.45;;;22.70;74.40;;;;;;7520264;22;82198;-57
2023/09/25 06:58:20;;;;;;;10.45;8.73;;;22.80;74.60;;;;;;7528686;22;81869;-58
2023/09/25 07:01:21;;;;;;;14.90;9.05;;;22.80;74.20;;;;;;7530100;22;82219;-58
2023/09/25 07:04:21;;;;;;;13.73;8.45;;;22.80;74.20;;;;;;7511863;22;83747;-58
2023/09/25 07:07:22;;;;;;;14.82;8.73;;;22.80;74.10;;;;;;7521547;22;82472;-60
2023/09/25 07:10:22;;;;;;;13.07;7.78;;;22.90;73.90;;;;;;7519045;22;80602;-58
2023/09/25 07:13:23;;;;;;;15.15;8.88;;;22.90;73.70;;;;;;7467116;22;83723;-55
2023/09/25 07:16:24;;;;;;;12.32;8.55;;;22.90;73.90;;;;;;7521016;22;80335;-51
2023/09/25 07:19:24;;;;;;;18.17;8.73;;;22.80;73.90;;;;;;7524395;22;80998;-52
2023/09/25 07:22:28;;;;;;;13.27;8.60;;;22.80;74.00;;;;;;7493731;22;81997;-53
2023/09/25 07:25:28;;;;;;;12.43;8.38;;;22.90;74.20;;;;;;7522146;22;81413;-55
2023/09/25 07:28:29;;;;;;;18.45;8.32;;;22.90;73.70;;;;;;7584941;22;82190;-52
2023/09/25 07:31:30;;;;;;;13.20;7.30;;;22.90;73.90;;;;;;7674517;22;80539;-59
2023/09/25 07:34:30;;;;;;;10.40;7.50;;;22.90;73.70;;;;;;7676242;22;80824;-59
2023/09/25 07:37:31;;;;;;;11.63;7.80;;;22.90;74.20;;;;;;7673027;22;80940;-58
2023/09/25 07:40:31;;;;;;;11.30;8.73;;;22.90;74.40;;;;;;7677427;22;80358;-58
2023/09/25 07:43:32;;;;;;;11.93;8.10;;;22.90;74.40;;;;;;7675168;22;81004;-58
2023/09/25 07:46:33;;;;;;;14.63;8.20;;;22.80;74.40;;;;;;7675217;22;80756;-58
2023/09/25 07:49:44;;;;;;;16.17;8.70;;;22.80;74.70;;;;;;7675740;22;80496;-58
2023/09/25 07:52:44;;;;;;;13.50;8.43;;;22.80;74.50;;;;;;7624351;22;83824;-58
2023/09/25 07:55:45;;;;;;;12.40;8.52;;;22.80;74.50;;;;;;7675946;22;80705;-58
2023/09/25 07:58:47;;;;;;;14.38;8.93;;;22.80;74.30;;;;;;7676057;22;81120;-58
2023/09/25 08:01:47;;;;;;;15.48;9.07;;;22.80;74.60;;;;;;7675940;22;81304;-58
2023/09/25 08:04:48;;;;;;;14.85;9.40;;;22.80;74.80;;;;;;7673332;22;80516;-59
2023/09/25 08:07:48;;;;;;;15.68;9.00;;;22.70;74.80;;;;;;7676122;22;81394;-64
2023/09/25 08:10:49;;;;;;;12.25;8.02;;;22.70;75.00;;;;;;7673988;22;81033;-65
2023/09/25 08:13:49;;;;;;;12.10;9.25;;;22.70;75.20;;;;;;7676756;22;80523;-63
2023/09/25 08:16:50;;;;;;;15.15;8.60;;;22.70;74.90;;;;;;7679497;22;80146;-64
2023/09/25 08:19:50;;;;;;;17.75;9.07;;;22.70;74.90;;;;;;7676506;22;80431;-63
2023/09/25 08:22:51;;;;;;;14.30;8.65;;;22.70;74.70;;;;;;7652450;22;82235;-63
2023/09/25 08:25:51;;;;;;;14.95;8.75;;;22.70;74.90;;;;;;7674882;22;80601;-57
2023/09/25 08:28:52;;;;;;;11.93;8.20;;;22.70;74.90;;;;;;7651532;22;82004;-50
2023/09/25 08:31:52;;;;;;;12.23;7.70;;;22.70;75.00;;;;;;7680659;22;80226;-51
2023/09/25 08:34:53;;;;;;;10.73;8.18;;;22.70;74.80;;;;;;7678844;22;80391;-53
2023/09/25 08:37:53;;;;;;;14.88;8.23;;;22.80;74.70;;;;;;7679786;22;82110;-54
2023/09/25 08:40:54;;;;;;;12.20;7.72;;;22.80;74.50;;;;;;7677132;22;80040;-52
2023/09/25 08:43:54;;;;;;;12.10;8.05;;;22.80;74.40;;;;;;7678088;22;80871;-55
2023/09/25 08:46:55;;;;;;;13.60;7.03;;;22.80;74.40;;;;;;7680296;22;80382;-58
2023/09/25 08:49:55;;;;;;;9.38;6.47;;;22.80;74.60;;;;;;7678242;22;81274;-58
2023/09/25 08:52:56;;;;;;;10.05;7.00;;;22.90;74.70;;;;;;7679220;22;80555;-57
2023/09/25 08:55:56;;;;;;;13.00;7.45;;;22.90;74.40;;;;;;7678903;22;80430;-59
2023/09/25 08:58:57;;;;;;;9.32;6.70;;;22.90;74.40;;;;;;7679034;22;81045;-58
2023/09/25 09:01:57;;;;;;;10.88;7.60;;;22.90;74.40;;;;;;7652465;22;82991;-58
2023/09/25 09:04:58;;;;;;;9.80;6.80;;;22.90;74.30;;;;;;7678616;22;81033;-63
2023/09/25 09:07:58;;;;;;;12.95;7.70;;;22.90;74.60;;;;;;7680259;22;81689;-63
2023/09/25 09:10:59;;;;;;;10.30;7.55;;;22.90;74.10;;;;;;7680378;22;80212;-63
2023/09/25 09:14:00;;;;;;;11.05;7.00;;;23.00;74.30;;;;;;7680177;22;80352;-64
2023/09/25 09:17:00;;;;;;;10.95;7.70;;;23.00;74.20;;;;;;7679602;22;80732;-63
2023/09/25 09:20:01;;;;;;;16.20;9.15;;;23.00;74.40;;;;;;7679602;22;80498;-62
2023/09/25 09:23:01;;;;;;;12.55;8.57;;;23.00;74.10;;;;;;7679170;22;80884;-62
2023/09/25 09:26:03;;;;;;;12.05;9.00;;;22.90;74.30;;;;;;7679562;22;80255;-62
2023/09/25 09:29:04;;;;;;;15.02;8.45;;;22.80;74.40;;;;;;7651033;22;81387;-62
2023/09/25 09:32:04;;;;;;;15.90;8.07;;;22.70;74.60;;;;;;7680324;22;80532;-62
2023/09/25 09:35:07;;;;;;;12.95;7.95;;;22.80;74.80;;;;;;7679270;22;80577;-62
2023/09/25 09:38:08;;;;;;;13.20;8.82;;;22.80;74.60;;;;;;7679920;22;80672;-62
2023/09/25 09:41:08;;;;;;;12.70;8.52;;;22.80;74.70;;;;;;7678583;22;81297;-53
2023/09/25 09:44:09;;;;;;;13.98;8.48;;;22.80;74.60;;;;;;7679548;22;80235;-53
2023/09/25 09:47:09;;;;;;;11.65;8.45;;;22.80;74.70;;;;;;7679246;22;80373;-53
2023/09/25 09:50:10;;;;;;;11.90;8.23;;;22.80;74.80;;;;;;7679810;22;80656;-53
2023/09/25 09:53:10;;;;;;;11.07;8.10;;;22.80;74.70;;;;;;7678178;22;80771;-53
2023/09/25 09:56:12;;;;;;;18.60;8.40;;;22.90;75.00;;;;;;7679791;22;80586;-51
2023/09/25 09:59:12;;;;;;;12.25;9.13;;;22.90;74.70;;;;;;7678534;22;80285;-51
2023/09/25 10:02:13;;;;;;;14.95;8.55;;;22.90;74.80;;;;;;7679125;22;80578;-52
2023/09/25 10:05:13;;;;;;;14.07;8.82;;;22.90;74.80;;;;;;7679123;22;82302;-54
2023/09/25 10:08:14;;;;;;;10.75;8.00;;;22.90;75.00;;;;;;7679455;22;80171;-51
2023/09/25 10:11:15;;;;;;;12.82;8.65;;;22.90;75.40;;;;;;7678913;22;80846;-54
2023/09/25 10:14:15;;;;;;;12.85;8.48;;;23.00;75.00;;;;;;7679089;22;80718;-55
2023/09/25 10:17:16;;;;;;;11.35;7.88;;;23.00;75.60;;;;;;7678997;22;80570;-51
2023/09/25 10:20:16;;;;;;;14.18;9.70;;;23.00;75.90;;;;;;7678380;22;80904;-58
2023/09/25 10:23:17;;;;;;;13.70;9.35;;;22.90;75.70;;;;;;7679204;22;80445;-59
2023/09/25 10:26:17;;;;;;;13.30;8.80;;;22.90;76.20;;;;;;7678946;22;80763;-58
2023/09/25 10:29:19;;;;;;;11.35;7.93;;;22.90;76.20;;;;;;7652658;22;80538;-58
2023/09/25 10:32:20;;;;;;;12.00;8.50;;;22.90;76.20;;;;;;7677842;22;81099;-58
2023/09/25 10:35:21;;;;;;;10.95;7.63;;;22.90;76.30;;;;;;7678466;22;80741;-58
2023/09/25 10:38:25;;;;;;;11.55;7.78;;;22.90;76.50;;;;;;7651449;22;83408;-62
2023/09/25 10:41:26;;;;;;;10.60;8.18;;;22.90;76.40;;;;;;7679089;22;80780;-62
2023/09/25 10:44:28;;;;;;;12.52;8.63;;;23.00;76.40;;;;;;7679328;22;80436;-61
2023/09/25 10:47:29;;;;;;;9.38;7.63;;;23.00;76.50;;;;;;7679223;22;80327;-61
2023/09/25 10:50:29;;;;;;;14.55;9.05;;;23.00;76.40;;;;;;7679096;22;80400;-61
2023/09/25 10:53:30;;;;;;;11.75;7.95;;;23.00;76.90;;;;;;7680101;22;80366;-64
2023/09/25 10:56:31;;;;;;;14.25;8.35;;;22.90;76.70;;;;;;7679150;22;80788;-64
2023/09/25 10:59:31;;;;;;;9.80;7.85;;;23.00;77.00;;;;;;7678899;22;80870;-63
2023/09/25 11:02:32;;;;;;;12.88;7.75;;;22.90;77.30;;;;;;7678669;22;79820;-62
2023/09/25 11:05:32;;;;;;;12.18;7.97;;;22.90;77.10;;;;;;7678314;22;80387;-63
2023/09/25 11:08:34;;;;;;;13.32;9.15;;;22.90;77.50;;;;;;7677932;22;82598;-62
2023/09/25 11:11:35;;;;;;;10.93;8.63;;;22.90;77.10;;;;;;7675508;22;84569;-63
2023/09/25 11:14:35;;;;;;;14.55;9.55;;;22.90;77.20;;;;;;7676856;22;80532;-62
2023/09/25 11:17:36;;;;;;;15.60;8.45;;;22.90;77.10;;;;;;7678054;22;80688;-61
2023/09/25 11:20:37;;;;;;;11.75;8.43;;;22.90;77.70;;;;;;7677235;22;80739;-63
2023/09/25 11:23:38;;;;;;;14.38;7.88;;;23.00;77.90;;;;;;7678011;22;81347;-66
2023/09/25 11:26:39;;;;;;;8.77;7.45;;;23.00;77.70;;;;;;7677454;22;81080;-63
2023/09/25 11:29:39;;;;;;;12.43;8.02;;;23.00;78.00;;;;;;7677233;22;80328;-63
2023/09/25 11:32:40;;;;;;;14.52;7.25;;;23.10;77.50;;;;;;7679640;22;81351;-61
2023/09/25 11:35:40;;;;;;;13.02;8.55;;;23.10;77.00;;;;;;7677289;22;80996;-62
2023/09/25 11:38:41;;;;;;;10.43;7.75;;;23.10;77.40;;;;;;7677158;22;80183;-63
2023/09/25 11:41:41;;;;;;;15.88;8.20;;;23.10;77.20;;;;;;7650625;22;83339;-64
2023/09/25 11:44:42;;;;;;;8.43;7.32;;;23.10;77.40;;;;;;7678093;22;81222;-62
2023/09/25 11:47:43;;;;;;;9.77;8.15;;;23.10;77.20;;;;;;7677453;22;80254;-62
2023/09/25 11:50:43;;;;;;;11.25;7.65;;;23.10;77.30;;;;;;7678731;22;83807;-63
2023/09/25 11:53:44;;;;;;;11.30;7.40;;;23.10;77.20;;;;;;7679110;22;81633;-62
2023/09/25 11:56:44;;;;;;;9.27;7.75;;;23.20;77.40;;;;;;7678445;22;80830;-62
2023/09/25 11:59:45;;;;;;;9.77;7.85;;;23.20;77.30;;;;;;7678803;22;80211;-63
2023/09/25 12:02:46;;;;;;;11.43;7.78;;;23.10;76.90;;;;;;7678144;22;80638;-62
2023/09/25 12:05:46;;;;;;;10.98;7.18;;;23.10;77.30;;;;;;7678754;22;80267;-63
2023/09/25 12:08:47;;;;;;;13.43;8.20;;;23.10;77.60;;;;;;7676243;22;80422;-64
2023/09/25 12:11:47;;;;;;;12.23;7.85;;;23.20;77.30;;;;;;7677362;22;80418;-62
2023/09/25 12:14:48;;;;;;;10.18;7.28;;;23.20;77.60;;;;;;7678793;22;81015;-62
2023/09/25 12:17:48;;;;;;;12.35;7.50;;;23.10;77.80;;;;;;7677873;22;87848;-63
2023/09/25 12:20:49;;;;;;;9.88;7.25;;;23.10;77.90;;;;;;7677756;22;80679;-63
2023/09/25 12:23:49;;;;;;;10.50;6.00;;;23.10;77.90;;;;;;7678201;22;80724;-62
2023/09/25 12:26:53;;;;;;;9.40;6.68;;;23.10;78.00;;;;;;7676391;22;80244;-63
2023/09/25 12:29:53;;;;;;;9.40;6.40;;;23.10;77.80;;;;;;7635176;22;80870;-62
2023/09/25 12:32:54;;;;;;;8.55;6.70;;;23.10;78.50;;;;;;7667921;22;80596;-62
2023/09/25 12:35:54;;;;;;;9.73;6.47;;;23.10;78.20;;;;;;7667244;22;81410;-62
2023/09/25 12:38:55;;;;;;;8.02;6.22;;;23.10;78.50;;;;;;7677155;22;80620;-62
2023/09/25 12:41:55;;;;;;;13.30;6.10;;;23.10;78.10;;;;;;7677940;22;80389;-61
2023/09/25 12:44:56;;;;;;;8.45;6.47;;;23.10;78.50;;;;;;7680024;22;80609;-60
2023/09/25 12:47:56;;;;;;;8.40;5.38;;;23.10;78.70;;;;;;7678214;22;80327;-61
2023/09/25 12:50:57;;;;;;;10.18;5.72;;;23.10;78.60;;;;;;7677674;22;80550;-60
2023/09/25 12:53:57;;;;;;;14.70;6.32;;;23.10;78.40;;;;;;7677470;22;81267;-60
2023/09/25 12:56:58;;;;;;;13.18;6.10;;;23.10;78.80;;;;;;7677322;22;80496;-61
2023/09/25 12:59:58;;;;;;;17.45;7.07;;;23.10;78.30;;;;;;7678208;22;80740;-62
2023/09/25 13:02:59;;;;;;;10.52;6.50;;;23.10;78.30;;;;;;7680349;22;80720;-61
2023/09/25 13:05:59;;;;;;;12.70;7.68;;;23.10;78.80;;;;;;7651634;22;82456;-61
2023/09/25 13:09:00;;;;;;;9.00;6.63;;;23.10;79.00;;;;;;7679908;22;80768;-62
2023/09/25 13:12:01;;;;;;;13.05;6.30;;;23.10;78.80;;;;;;7627453;22;81060;-62
2023/09/25 13:15:01;;;;;;;11.95;6.80;;;23.10;78.90;;;;;;7680660;22;81144;-62
2023/09/25 13:18:04;;;;;;;11.82;6.85;;;23.20;78.90;;;;;;7680403;22;80569;-62
2023/09/25 13:21:05;;;;;;;9.63;6.72;;;23.10;78.80;;;;;;7679500;22;80514;-62
2023/09/25 13:24:05;;;;;;;13.52;7.03;;;23.10;78.50;;;;;;7679438;22;80870;-62
2023/09/25 13:27:06;;;;;;;19.38;7.80;;;23.20;78.40;;;;;;7680129;22;80990;-63
2023/09/25 13:30:15;;;;;;;9.65;6.88;;;23.20;77.90;;;;;;7677219;22;80272;-61
2023/09/25 13:33:16;;;;;;;10.00;6.75;;;23.20;78.40;;;;;;7678974;22;80501;-60
2023/09/25 13:36:16;;;;;;;9.55;7.15;;;23.20;78.40;;;;;;7675168;22;81063;-61
2023/09/25 13:39:17;;;;;;;9.10;6.75;;;23.20;78.10;;;;;;7677114;22;80436;-60
2023/09/25 13:42:18;;;;;;;9.85;7.05;;;23.20;77.90;;;;;;7675892;22;80391;-49
2023/09/25 13:45:18;;;;;;;9.60;7.18;;;23.20;78.20;;;;;;7650334;22;81881;-52
2023/09/25 13:48:19;;;;;;;12.77;7.53;;;23.20;78.10;;;;;;7676870;22;80177;-51
2023/09/25 13:51:19;;;;;;;10.80;7.57;;;23.20;78.00;;;;;;7679555;22;80321;-49
2023/09/25 13:54:20;;;;;;;11.60;6.50;;;23.20;77.90;;;;;;7677412;22;80753;-49
2023/09/25 13:57:20;;;;;;;12.23;6.97;;;23.20;77.90;;;;;;7678887;22;80274;-53
2023/09/25 14:00:23;;;;;;;11.55;7.35;;;23.20;78.40;;;;;;7652283;22;82447;-46
2023/09/25 14:03:23;;;;;;;12.13;6.30;;;23.20;78.30;;;;;;7680040;22;80324;-51
2023/09/25 14:06:24;;;;;;;19.73;7.20;;;23.20;78.30;;;;;;7679280;22;80518;-54
2023/09/25 14:09:24;;;;;;;8.35;6.47;;;23.20;78.30;;;;;;7680516;22;81417;-56
2023/09/25 14:12:25;;;;;;;11.00;6.53;;;23.30;78.40;;;;;;7679795;22;80587;-53
2023/09/25 14:15:25;;;;;;;11.35;6.25;;;23.30;78.00;;;;;;7680653;22;80610;-59
2023/09/25 14:18:26;;;;;;;12.70;6.00;;;23.30;78.00;;;;;;7679957;22;80787;-62
2023/09/25 14:21:27;;;;;;;10.18;6.30;;;23.30;78.00;;;;;;7670523;22;81437;-66
2023/09/25 14:24:27;;;;;;;11.93;5.95;;;23.30;78.20;;;;;;7681029;22;80507;-65
2023/09/25 14:27:28;;;;;;;14.05;7.25;;;23.40;78.40;;;;;;7680160;22;80895;-63
2023/09/25 14:30:29;;;;;;;10.32;5.35;;;23.40;77.70;;;;;;7680420;22;80428;-63
2023/09/25 14:33:34;;;;;;;8.88;5.63;;;23.50;77.60;;;;;;7681289;22;80204;-62
2023/09/25 14:36:34;;;;;;;8.90;5.35;;;23.60;77.40;;;;;;7666081;22;81754;-62
2023/09/25 14:39:35;;;;;;;9.10;5.85;;;23.50;77.30;;;;;;7673294;22;80941;-62
2023/09/25 14:42:36;;;;;;;7.38;5.20;;;23.50;77.30;;;;;;7641841;22;81896;-64
2023/09/25 14:45:36;;;;;;;8.98;5.30;;;23.60;77.90;;;;;;7667322;22;80743;-62
2023/09/25 14:48:37;;;;;;;8.27;5.38;;;23.60;78.20;;;;;;7680236;22;80318;-62
2023/09/25 14:51:37;;;;;;;8.60;5.25;;;23.60;77.80;;;;;;7670509;22;80499;-61
2023/09/25 14:54:38;;;;;;;11.73;5.72;;;23.70;78.40;;;;;;7677921;22;80532;-57
2023/09/25 14:57:41;;;;;;;9.63;5.85;;;23.70;77.90;;;;;;7675637;22;80487;-57
2023/09/25 15:00:41;;;;;;;5.93;4.93;;;23.80;77.80;;;;;;7648608;22;83607;-58
2023/09/25 15:03:42;;;;;;;8.48;5.68;;;23.80;77.20;;;;;;7674263;22;80387;-55
2023/09/25 15:06:43;;;;;;;6.95;5.40;;;23.80;77.50;;;;;;7679412;22;80253;-56
2023/09/25 15:09:43;;;;;;;14.20;5.53;;;23.90;77.70;;;;;;7680141;22;80336;-57
2023/09/25 15:12:44;;;;;;;6.63;5.13;;;23.90;77.40;;;;;;7679657;22;80207;-56
2023/09/25 15:15:44;;;;;;;11.45;5.30;;;23.90;77.10;;;;;;7674956;22;82107;-55
2023/09/25 15:18:45;;;;;;;10.32;6.18;;;23.90;76.90;;;;;;7660219;22;81701;-56
2023/09/25 15:21:45;;;;;;;7.63;5.25;;;24.00;76.90;;;;;;7674723;22;81963;-57
2023/09/25 15:24:46;;;;;;;8.95;5.60;;;24.00;77.00;;;;;;7677268;22;80425;-56
2023/09/25 15:27:47;;;;;;;14.95;6.22;;;24.00;77.00;;;;;;7679290;22;80785;-56
2023/09/25 15:30:47;;;;;;;11.68;5.93;;;24.00;76.80;;;;;;7680627;22;80696;-63
2023/09/25 15:33:48;;;;;;;7.90;5.43;;;24.10;76.80;;;;;;7674219;22;80680;-66